Search for airport 
image banner adimage banner adimage banner ad
image banner ad

22CN - Abc-Tv

Located in Los Angeles, United States

ICAO - 22CN, IATA -

Data provided by Airmate  

General information

Coordinates: N34°6'12" W118°16'46"
Elevation is 422 feet MSL.
Magnetic variation is 14° East
View others Airports in California

Operational data

Special qualification required
Current time UTC:
Current local time:
Weather at : KBUR - Bob Hope ( 13 km )
METAR: KBUR 221253Z 19004KT 10SM CLR 16/13 A2992 RMK AO2 SLP119 T01610133 $
TAF: KBUR 221136Z 2212/2312 VRB03KT P6SM FEW009 FM221900 17010KT P6SM SKC FM230300 14004KT P6SM SKC FM230800 VRB03KT P6SM SKC
View NOTAMs / SUP AIP / TFR affecting this airport [VIEW]
Communications frequencies: [VIEW]

Runways:

Airport contact information

Address: Los Angeles United States

Satellite view of 22CN